Time;durP1;ratioP1;P1;durP2;ratioP2;P2;SDS_P1;SDS_P2;PMS_P1;PMS_P2;Temp;Humidity;BMP_temperature;BMP_pressure;BME280_temperature;BME280_humidity;BME280_pressure;Samples;Min_cycle;Max_cycle;Signal;HPM_P1;HPM_P2
2022/04/25 00:01:15;;;;;;;8.00;2.50;;;359.00;2329.60;;;;;;5095475;28;20066;-75
2022/04/25 00:03:41;;;;;;;11.10;3.22;;;359.10;2329.60;;;;;;5095924;28;20016;-78
2022/04/25 00:06:07;;;;;;;8.32;2.53;;;359.20;2329.60;;;;;;5077359;28;20028;-76
2022/04/25 00:08:33;;;;;;;11.63;3.28;;;359.20;2329.60;;;;;;5095788;28;20020;-75
2022/04/25 00:10:58;;;;;;;8.02;3.00;;;359.10;2329.60;;;;;;5076945;28;20389;-75
2022/04/25 00:13:25;;;;;;;17.23;2.97;;;359.20;2329.60;;;;;;5094837;28;20093;-75
2022/04/25 00:15:52;;;;;;;10.13;3.00;;;359.20;2329.60;;;;;;5076621;28;20474;-76
2022/04/25 00:18:18;;;;;;;16.65;3.50;;;359.10;2329.60;;;;;;5095399;28;20429;-75
2022/04/25 00:20:44;;;;;;;12.32;3.63;;;359.20;2329.60;;;;;;5076981;28;20066;-76
2022/04/25 00:23:10;;;;;;;16.45;3.33;;;359.20;2329.60;;;;;;5095069;28;20059;-75
2022/04/25 00:25:36;;;;;;;11.95;3.08;;;359.30;2329.60;;;;;;5095350;28;20023;-75
2022/04/25 00:28:04;;;;;;;11.18;3.38;;;359.20;2329.60;;;;;;5076563;28;20024;-77
2022/04/25 00:30:30;;;;;;;10.40;3.00;;;359.00;2329.60;;;;;;5092984;28;20024;-75
2022/04/25 00:32:57;;;;;;;8.05;3.28;;;359.00;2329.60;;;;;;5095183;28;20034;-76
2022/04/25 00:35:24;;;;;;;10.88;3.35;;;359.00;2329.60;;;;;;5095018;28;20081;-78
2022/04/25 00:37:50;;;;;;;10.73;3.30;;;359.00;2329.60;;;;;;5092817;28;20550;-75
2022/04/25 00:40:19;;;;;;;13.20;3.88;;;359.00;2329.60;;;;;;5076743;28;20074;-76
2022/04/25 00:42:45;;;;;;;10.50;3.53;;;359.00;2329.60;;;;;;5094487;28;20040;-76
2022/04/25 00:45:12;;;;;;;23.67;3.78;;;358.60;2329.60;;;;;;5094547;28;20347;-75
2022/04/25 00:47:39;;;;;;;9.15;2.65;;;358.40;2329.60;;;;;;5076526;28;20024;-76
2022/04/25 00:50:06;;;;;;;9.52;3.42;;;333.40;2329.60;;;;;;5094437;28;20031;-79
2022/04/25 00:52:31;;;;;;;14.20;3.25;;;333.40;2329.60;;;;;;5074413;28;20051;-76
2022/04/25 00:55:00;;;;;;;17.13;4.32;;;333.70;2329.60;;;;;;5095077;28;20020;-77
2022/04/25 00:57:27;;;;;;;5.07;2.63;;;333.70;2329.60;;;;;;5076959;28;20028;-76
2022/04/25 00:59:54;;;;;;;9.20;2.70;;;333.40;2329.60;;;;;;5076649;28;20047;-79
2022/04/25 01:02:20;;;;;;;14.90;3.55;;;333.30;2329.60;;;;;;5094953;28;20039;-78
2022/04/25 01:04:45;;;;;;;7.15;2.50;;;333.40;2329.60;;;;;;5076743;28;20025;-76
2022/04/25 01:07:11;;;;;;;12.73;2.60;;;333.50;2329.60;;;;;;5076269;28;20016;-76
2022/04/25 01:09:37;;;;;;;14.38;3.92;;;333.00;2329.60;;;;;;5076749;28;20024;-76
2022/04/25 01:12:03;;;;;;;9.95;3.67;;;332.90;2329.60;;;;;;5076558;28;20462;-76
2022/04/25 01:14:29;;;;;;;17.75;3.55;;;332.90;2329.60;;;;;;5075729;28;20036;-77
2022/04/25 01:16:54;;;;;;;12.23;3.50;;;333.20;2329.60;;;;;;5076122;28;20024;-77
2022/04/25 01:19:20;;;;;;;7.38;2.70;;;333.20;2329.60;;;;;;5071639;28;20043;-77
2022/04/25 01:22:02;;;;;;;6.30;2.95;;;333.00;2329.60;;;;;;5094632;28;20040;-76
2022/04/25 01:27:17;;;;;;;19.13;4.10;;;333.10;2329.60;;;;;;5092053;28;20067;-78
2022/04/25 01:29:47;;;;;;;17.60;3.22;;;332.90;2329.60;;;;;;5075949;28;20048;-76
2022/04/25 01:32:14;;;;;;;8.35;3.15;;;332.80;2329.60;;;;;;5073873;28;20016;-79
2022/04/25 01:34:40;;;;;;;8.98;2.97;;;307.90;2304.00;;;;;;5094482;28;20525;-79
2022/04/25 01:37:13;;;;;;;10.60;2.97;;;307.80;2304.00;;;;;;5094671;28;20500;-77
2022/04/25 01:39:45;;;;;;;11.43;3.08;;;308.10;2304.00;;;;;;5074341;28;20024;-78
2022/04/25 01:42:12;;;;;;;16.98;4.55;;;308.00;2304.00;;;;;;5094346;28;20081;-77
2022/04/25 01:44:39;;;;;;;7.15;2.80;;;332.90;2329.60;;;;;;5076407;28;20038;-77
2022/04/25 01:47:06;;;;;;;8.00;3.15;;;307.60;2304.00;;;;;;5075749;28;20477;-77
2022/04/25 01:49:32;;;;;;;10.80;2.70;;;307.60;2304.00;;;;;;5076310;28;20024;-77
2022/04/25 01:52:05;;;;;;;17.13;4.18;;;307.90;2304.00;;;;;;5075901;28;20505;-77
2022/04/25 01:54:32;;;;;;;15.90;4.32;;;307.70;2304.00;;;;;;5093564;28;20469;-76
2022/04/25 01:57:00;;;;;;;10.98;3.67;;;307.70;2304.00;;;;;;5076022;28;20016;-76
2022/04/25 01:59:27;;;;;;;16.92;3.45;;;307.90;2304.00;;;;;;5075956;28;20024;-77
2022/04/25 02:01:53;;;;;;;8.68;3.15;;;307.90;2304.00;;;;;;5093676;28;20034;-76
2022/04/25 02:04:19;;;;;;;10.95;3.67;;;307.80;2304.00;;;;;;5093789;28;20111;-78
2022/04/25 02:06:46;;;;;;;13.00;2.67;;;307.60;2304.00;;;;;;5075642;28;20024;-75
2022/04/25 02:09:12;;;;;;;8.27;2.67;;;307.80;2304.00;;;;;;5075333;28;20107;-75
2022/04/25 02:11:38;;;;;;;14.90;3.42;;;308.10;2304.00;;;;;;5093719;28;20099;-75
2022/04/25 02:14:04;;;;;;;10.30;3.80;;;308.10;2304.00;;;;;;5075528;28;20466;-76
2022/04/25 02:16:29;;;;;;;8.63;2.70;;;332.90;2329.60;;;;;;5075385;28;20028;-75
2022/04/25 02:18:55;;;;;;;12.55;4.25;;;333.00;2329.60;;;;;;5074628;28;20019;-76
2022/04/25 02:21:22;;;;;;;11.82;3.97;;;333.10;2329.60;;;;;;5093228;28;20020;-76
2022/04/25 02:23:48;;;;;;;14.77;4.18;;;333.10;2329.60;;;;;;5067011;28;20393;-76
2022/04/25 02:26:13;;;;;;;19.58;4.70;;;333.10;2329.60;;;;;;5075758;28;20027;-75
2022/04/25 02:28:40;;;;;;;17.92;4.30;;;333.30;2329.60;;;;;;5093560;28;20028;-77
2022/04/25 02:31:07;;;;;;;9.77;4.57;;;333.20;2329.60;;;;;;5075181;28;20020;-75
2022/04/25 02:33:34;;;;;;;12.90;3.92;;;333.10;2329.60;;;;;;5075134;28;20027;-75
2022/04/25 02:36:04;;;;;;;11.75;4.10;;;333.20;2329.60;;;;;;5093525;28;20522;-77
2022/04/25 02:38:31;;;;;;;8.77;2.92;;;333.20;2329.60;;;;;;5075218;28;20592;-75
2022/04/25 02:41:06;;;;;;;10.65;3.92;;;333.20;2329.60;;;;;;5075225;28;20050;-77
2022/04/25 02:43:34;;;;;;;13.50;3.73;;;333.20;2329.60;;;;;;5075121;28;20036;-76
2022/04/25 02:46:01;;;;;;;6.78;2.88;;;333.10;2329.60;;;;;;5075044;28;20026;-78
2022/04/25 02:48:27;;;;;;;9.20;3.35;;;333.10;2329.60;;;;;;5075176;28;20028;-75
2022/04/25 02:50:53;;;;;;;12.30;3.83;;;332.90;2329.60;;;;;;5074637;28;20052;-75
2022/04/25 02:53:19;;;;;;;12.95;4.25;;;332.90;2329.60;;;;;;5093213;28;20052;-76
2022/04/25 02:55:45;;;;;;;20.85;4.18;;;332.90;2329.60;;;;;;5074968;28;20024;-77
2022/04/25 02:58:10;;;;;;;12.75;3.50;;;332.90;2329.60;;;;;;5076774;28;20020;-77
2022/04/25 03:00:36;;;;;;;11.35;3.03;;;332.90;2329.60;;;;;;5072824;28;20032;-76
2022/04/25 03:03:02;;;;;;;11.32;3.72;;;332.90;2329.60;;;;;;5100481;28;20478;-75
2022/04/25 03:05:28;;;;;;;16.40;4.57;;;333.00;2329.60;;;;;;5075379;28;20477;-76
2022/04/25 03:07:54;;;;;;;15.70;4.13;;;332.90;2329.60;;;;;;5092906;28;20024;-75
2022/04/25 03:10:19;;;;;;;18.67;4.13;;;332.80;2329.60;;;;;;5093040;28;20017;-75
2022/04/25 03:12:46;;;;;;;16.00;3.53;;;332.90;2329.60;;;;;;5093221;28;20508;-79
2022/04/25 03:15:11;;;;;;;14.75;5.72;;;308.10;2304.00;;;;;;5074994;28;20413;-75
2022/04/25 03:17:38;;;;;;;12.82;3.95;;;308.10;2304.00;;;;;;5074510;28;20077;-75
2022/04/25 03:20:05;;;;;;;8.43;3.28;;;307.80;2304.00;;;;;;5092847;28;20019;-76
2022/04/25 03:22:31;;;;;;;17.23;4.72;;;307.70;2304.00;;;;;;5092841;28;20032;-76
2022/04/25 03:24:56;;;;;;;19.88;3.83;;;308.00;2304.00;;;;;;5092883;28;20039;-76
2022/04/25 03:27:22;;;;;;;13.55;3.90;;;308.10;2304.00;;;;;;5074833;28;20044;-76
2022/04/25 03:29:48;;;;;;;14.07;3.72;;;332.90;2329.60;;;;;;5093077;28;20039;-75
2022/04/25 03:32:15;;;;;;;13.38;4.65;;;332.90;2329.60;;;;;;5096605;28;20035;-77
2022/04/25 03:34:41;;;;;;;9.07;4.00;;;308.10;2304.00;;;;;;5078599;28;20020;-79
2022/04/25 03:37:08;;;;;;;14.35;4.68;;;307.90;2304.00;;;;;;5078472;28;20024;-75
2022/04/25 03:39:34;;;;;;;8.05;3.72;;;307.90;2304.00;;;;;;5078760;28;20017;-78
2022/04/25 03:42:01;;;;;;;15.57;5.28;;;308.10;2304.00;;;;;;5096752;28;20032;-77
2022/04/25 03:44:27;;;;;;;14.48;4.70;;;332.80;2329.60;;;;;;5078553;28;20433;-77
2022/04/25 03:46:53;;;;;;;12.00;5.35;;;308.10;2304.00;;;;;;5078208;28;20024;-78
2022/04/25 03:49:19;;;;;;;14.13;5.28;;;308.10;2304.00;;;;;;5078273;28;20089;-79
2022/04/25 03:51:44;;;;;;;9.60;5.38;;;332.80;2329.60;;;;;;5078062;28;20492;-77
2022/04/25 03:54:10;;;;;;;12.70;4.05;;;332.90;2329.60;;;;;;5096583;28;20027;-76
2022/04/25 03:59:20;;;;;;;13.10;4.43;;;333.20;2329.60;;;;;;5096562;28;20393;-76
2022/04/25 04:01:45;;;;;;;10.70;3.92;;;333.30;2329.60;;;;;;5077981;28;20032;-78
2022/04/25 04:04:11;;;;;;;12.60;4.53;;;333.50;2329.60;;;;;;5096302;28;20021;-77
2022/04/25 04:06:37;;;;;;;10.40;3.65;;;333.60;2329.60;;;;;;5078018;28;20549;-77
2022/04/25 04:09:44;;;;;;;11.25;4.45;;;358.40;2329.60;;;;;;5096390;28;20023;-78
2022/04/25 04:11:50;;;;;;;15.90;4.07;;;358.40;2329.60;;;;;;5094648;28;20073;-79
2022/04/25 04:14:15;;;;;;;9.57;4.53;;;358.40;2329.60;;;;;;5096209;28;20084;-78
2022/04/25 04:16:42;;;;;;;17.38;4.22;;;358.50;2329.60;;;;;;5075197;28;20013;-80
2022/04/25 04:19:09;;;;;;;10.10;4.18;;;358.50;2329.60;;;;;;5095768;28;20100;-78
2022/04/25 04:21:35;;;;;;;18.00;5.10;;;358.50;2329.60;;;;;;5077834;28;20465;-78
2022/04/25 04:24:01;;;;;;;10.32;4.60;;;358.50;2329.60;;;;;;5096066;28;20027;-78
2022/04/25 04:26:28;;;;;;;15.20;5.20;;;358.50;2329.60;;;;;;5095977;28;20016;-78
2022/04/25 04:28:56;;;;;;;12.38;4.45;;;333.70;2329.60;;;;;;5077876;28;20397;-79
2022/04/25 04:31:22;;;;;;;10.88;3.90;;;333.40;2329.60;;;;;;5077830;28;20036;-79
2022/04/25 04:33:47;;;;;;;9.85;3.90;;;333.30;2329.60;;;;;;5077451;28;20070;-78
2022/04/25 04:36:19;;;;;;;11.95;3.65;;;333.20;2329.60;;;;;;5077524;28;20024;-78
2022/04/25 04:38:45;;;;;;;9.98;3.17;;;333.20;2329.60;;;;;;5075415;28;20055;-78
2022/04/25 04:41:12;;;;;;;9.23;3.35;;;333.10;2329.60;;;;;;5095767;28;20065;-78
2022/04/25 04:43:38;;;;;;;7.95;3.80;;;333.40;2329.60;;;;;;5075835;28;20040;-77
2022/04/25 04:46:03;;;;;;;10.15;3.47;;;333.10;2329.60;;;;;;5092718;28;20096;-77
2022/04/25 04:48:29;;;;;;;14.30;3.92;;;333.30;2329.60;;;;;;5077059;28;20028;-77
2022/04/25 04:50:56;;;;;;;6.53;3.10;;;333.50;2329.60;;;;;;5068823;28;20044;-79
2022/04/25 04:53:22;;;;;;;15.38;7.25;;;333.20;2329.60;;;;;;5077277;28;20023;-77
2022/04/25 04:55:49;;;;;;;15.85;5.10;;;333.30;2329.60;;;;;;5095327;28;20025;-77
2022/04/25 04:58:15;;;;;;;10.52;4.95;;;333.20;2329.60;;;;;;5095253;28;20016;-77
2022/04/25 05:00:44;;;;;;;10.60;3.78;;;333.50;2329.60;;;;;;5076054;28;20162;-78
2022/04/25 05:03:13;;;;;;;7.25;3.80;;;333.30;2329.60;;;;;;5076893;28;20496;-79
2022/04/25 05:05:40;;;;;;;14.48;3.63;;;333.30;2329.60;;;;;;5077089;28;20028;-78
2022/04/25 05:08:05;;;;;;;9.30;3.90;;;333.40;2329.60;;;;;;5074441;28;20099;-78
2022/04/25 05:10:31;;;;;;;8.68;3.67;;;333.40;2329.60;;;;;;5077084;28;20047;-77
2022/04/25 05:12:57;;;;;;;13.07;3.45;;;333.50;2329.60;;;;;;5076759;28;20032;-75
2022/04/25 05:15:23;;;;;;;9.30;3.60;;;333.40;2329.60;;;;;;5094828;28;20020;-78
2022/04/25 05:17:50;;;;;;;8.80;3.92;;;333.40;2329.60;;;;;;5094734;28;20384;-75
2022/04/25 05:20:17;;;;;;;23.40;10.57;;;333.50;2329.60;;;;;;5094424;28;20081;-76
2022/04/25 05:22:45;;;;;;;9.13;4.63;;;333.60;2329.60;;;;;;5094543;28;20108;-77
2022/04/25 05:25:15;;;;;;;6.85;4.30;;;333.60;2329.60;;;;;;5094511;28;20032;-76
2022/04/25 05:27:45;;;;;;;9.35;3.25;;;333.60;2329.60;;;;;;5094474;28;20103;-76
2022/04/25 05:30:12;;;;;;;8.50;3.63;;;333.70;2329.60;;;;;;5094534;28;20012;-77
2022/04/25 05:32:46;;;;;;;10.10;3.70;;;333.70;2329.60;;;;;;5076158;28;20077;-77
2022/04/25 05:35:13;;;;;;;7.03;4.30;;;358.40;2329.60;;;;;;5076194;28;20099;-77
2022/04/25 05:37:39;;;;;;;8.75;5.20;;;358.40;2329.60;;;;;;5094316;28;20022;-77
2022/04/25 05:40:06;;;;;;;30.33;9.82;;;358.60;2329.60;;;;;;5075957;28;20032;-78
2022/04/25 05:42:33;;;;;;;38.85;15.70;;;358.80;2329.60;;;;;;5094284;28;20477;-77
2022/04/25 05:45:04;;;;;;;18.85;8.60;;;358.80;2329.60;;;;;;5075871;28;20378;-76
2022/04/25 05:47:32;;;;;;;32.13;14.55;;;358.80;2329.60;;;;;;5091457;28;20039;-77
2022/04/25 05:52:42;;;;;;;12.15;5.15;;;359.00;2329.60;;;;;;5093535;28;20555;-77
2022/04/25 05:55:09;;;;;;;9.45;3.75;;;359.00;2329.60;;;;;;5094385;28;20028;-77
2022/04/25 05:57:35;;;;;;;14.45;5.22;;;358.80;2329.60;;;;;;5094395;28;20020;-78
2022/04/25 06:00:01;;;;;;;8.60;4.50;;;358.80;2329.60;;;;;;5076144;28;20085;-77
2022/04/25 06:02:26;;;;;;;9.93;4.90;;;358.70;2329.60;;;;;;5075980;28;20040;-77
2022/04/25 06:04:52;;;;;;;8.38;4.97;;;358.80;2329.60;;;;;;5094107;28;20032;-77
2022/04/25 06:07:18;;;;;;;11.57;4.68;;;358.80;2329.60;;;;;;5094281;28;20051;-77
2022/04/25 06:09:43;;;;;;;9.15;4.47;;;358.80;2329.60;;;;;;5094192;28;20024;-78
2022/04/25 06:12:09;;;;;;;13.57;5.10;;;358.90;2329.60;;;;;;5094122;28;20469;-76
2022/04/25 06:14:35;;;;;;;21.38;5.32;;;358.90;2329.60;;;;;;5076070;28;20028;-77
2022/04/25 06:17:01;;;;;;;13.15;4.75;;;359.00;2329.60;;;;;;5093902;28;20028;-77
2022/04/25 06:19:27;;;;;;;13.52;5.45;;;359.10;2329.60;;;;;;5075518;28;20032;-77
2022/04/25 06:21:52;;;;;;;13.60;4.57;;;359.10;2329.60;;;;;;5093855;28;20473;-76
2022/04/25 06:24:19;;;;;;;11.35;5.07;;;359.10;2329.60;;;;;;5093891;28;20077;-77
2022/04/25 06:26:49;;;;;;;8.70;4.68;;;359.10;2329.60;;;;;;5075859;28;20016;-75
2022/04/25 06:29:18;;;;;;;12.50;4.72;;;359.30;2329.60;;;;;;5075791;28;20092;-77
2022/04/25 06:31:44;;;;;;;13.93;4.80;;;359.30;2329.60;;;;;;5075276;28;20032;-76
2022/04/25 06:34:09;;;;;;;11.27;4.75;;;359.30;2329.60;;;;;;5095686;28;20500;-77
2022/04/25 06:36:36;;;;;;;15.05;5.72;;;384.00;2329.60;;;;;;5080551;28;20035;-76
2022/04/25 06:39:03;;;;;;;14.40;4.78;;;384.20;2329.60;;;;;;5097921;28;20016;-77
2022/04/25 06:41:30;;;;;;;14.82;4.28;;;384.40;2329.60;;;;;;5075727;28;20485;-77
2022/04/25 06:43:58;;;;;;;11.38;4.20;;;384.50;2329.60;;;;;;5075713;28;20016;-79
2022/04/25 06:46:29;;;;;;;15.18;5.38;;;384.50;2329.60;;;;;;5093815;28;20024;-79
2022/04/25 06:51:39;;;;;;;15.65;5.40;;;384.30;2329.60;;;;;;5093427;28;20063;-78
2022/04/25 06:54:06;;;;;;;14.60;5.40;;;384.40;2329.60;;;;;;5093580;28;20012;-78
2022/04/25 06:56:32;;;;;;;17.70;6.20;;;384.30;2329.60;;;;;;5093540;28;20103;-77
2022/04/25 06:58:58;;;;;;;9.57;4.78;;;384.40;2329.60;;;;;;5075539;28;20113;-77
2022/04/25 07:01:24;;;;;;;12.57;4.07;;;384.50;2329.60;;;;;;5075380;28;20024;-77
2022/04/25 07:03:50;;;;;;;13.15;5.38;;;384.70;2329.60;;;;;;5093202;28;20139;-77
2022/04/25 07:06:16;;;;;;;9.80;4.72;;;384.60;2329.60;;;;;;5092979;28;20052;-77
2022/04/25 07:08:41;;;;;;;11.98;4.70;;;384.50;2329.60;;;;;;5075304;28;20028;-77
2022/04/25 07:11:07;;;;;;;10.07;4.85;;;384.50;2329.60;;;;;;5075577;28;20024;-77
2022/04/25 07:13:33;;;;;;;13.38;4.30;;;384.60;2329.60;;;;;;5075181;28;20798;-76
2022/04/25 07:15:59;;;;;;;10.25;3.90;;;384.60;2329.60;;;;;;5075235;28;20027;-78
2022/04/25 07:18:24;;;;;;;9.80;3.83;;;384.70;2329.60;;;;;;5074512;28;20117;-78
2022/04/25 07:20:50;;;;;;;15.02;4.13;;;384.80;2329.60;;;;;;5075191;28;20119;-76
2022/04/25 07:28:48;;;;;;;16.63;4.50;;;384.70;2329.60;;;;;;4991793;28;20527;-78
2022/04/25 07:31:15;;;;;;;5.93;2.72;;;384.70;2329.60;;;;;;4991720;28;20276;-76
2022/04/25 07:33:43;;;;;;;7.65;3.25;;;384.80;2329.60;;;;;;4991542;28;20117;-78
2022/04/25 07:36:09;;;;;;;14.40;5.78;;;384.90;2329.60;;;;;;4991503;28;20054;-77
2022/04/25 07:38:39;;;;;;;17.73;5.63;;;384.90;2329.60;;;;;;4991627;28;20495;-77
2022/04/25 07:41:06;;;;;;;12.18;3.25;;;384.90;2329.60;;;;;;4991573;28;20039;-75
2022/04/25 07:43:32;;;;;;;11.25;3.30;;;384.90;2329.60;;;;;;4991387;28;20435;-78
2022/04/25 07:45:57;;;;;;;13.43;3.45;;;384.90;2329.60;;;;;;4990634;28;20034;-78
2022/04/25 07:48:25;;;;;;;9.80;3.60;;;409.60;2355.20;;;;;;4991292;28;20077;-77
2022/04/25 07:50:50;;;;;;;16.58;4.28;;;409.70;2355.20;;;;;;4974234;28;20563;-76
2022/04/25 07:53:16;;;;;;;11.80;4.10;;;409.70;2355.20;;;;;;4991448;28;20050;-76
2022/04/25 07:55:42;;;;;;;11.80;4.05;;;409.80;2355.20;;;;;;4991436;28;20366;-77
2022/04/25 07:58:08;;;;;;;8.20;3.53;;;409.90;2355.20;;;;;;4991534;28;20049;-75
2022/04/25 08:00:35;;;;;;;9.27;3.92;;;410.00;2355.20;;;;;;4975149;28;20042;-77
2022/04/25 08:03:01;;;;;;;9.55;3.60;;;410.10;2355.20;;;;;;4990737;28;20097;-76
2022/04/25 08:05:27;;;;;;;12.45;5.05;;;410.20;2355.20;;;;;;5018334;28;20032;-76
2022/04/25 08:07:53;;;;;;;10.25;4.32;;;410.20;2355.20;;;;;;5071428;28;20044;-80
2022/04/25 08:10:19;;;;;;;9.15;3.85;;;410.30;2355.20;;;;;;5087744;28;20025;-75
2022/04/25 08:18:14;;;;;;;7.60;3.22;;;435.30;2355.20;;;;;;5094836;28;20036;-76
2022/04/25 08:20:40;;;;;;;7.90;2.60;;;435.40;2355.20;;;;;;5077809;28;20032;-76
2022/04/25 08:23:11;;;;;;;11.90;3.10;;;435.50;2355.20;;;;;;5078173;28;20808;-75
2022/04/25 08:25:41;;;;;;;4.72;2.53;;;435.50;2355.20;;;;;;5077905;28;20028;-75
2022/04/25 08:28:07;;;;;;;9.55;3.35;;;435.60;2355.20;;;;;;5096183;28;20051;-75
2022/04/25 08:30:33;;;;;;;8.07;2.78;;;435.70;2355.20;;;;;;5096071;28;20462;-74
2022/04/25 08:33:00;;;;;;;9.15;3.55;;;435.80;2355.20;;;;;;5095174;28;20024;-76
2022/04/25 08:35:26;;;;;;;10.63;3.08;;;435.90;2355.20;;;;;;5077043;28;20034;-76
2022/04/25 08:37:54;;;;;;;6.10;3.25;;;435.90;2355.20;;;;;;5077858;28;20031;-77
2022/04/25 08:40:20;;;;;;;8.63;2.70;;;436.00;2355.20;;;;;;5095922;28;20031;-78
2022/04/25 08:42:46;;;;;;;7.85;2.42;;;436.10;2355.20;;;;;;5077616;28;20028;-77
2022/04/25 08:45:13;;;;;;;8.32;2.25;;;436.10;2355.20;;;;;;5077626;28;20389;-76
2022/04/25 08:47:58;;;;;;;8.32;2.05;;;436.10;2355.20;;;;;;5095664;28;20440;-76
2022/04/25 08:50:24;;;;;;;6.28;2.38;;;436.10;2355.20;;;;;;5077292;28;20039;-77
2022/04/25 08:52:51;;;;;;;6.03;1.80;;;436.00;2355.20;;;;;;5095560;28;20505;-76
2022/04/25 08:55:18;;;;;;;4.68;1.58;;;436.10;2355.20;;;;;;5077550;28;20042;-74
2022/04/25 08:57:44;;;;;;;7.55;1.70;;;436.10;2355.20;;;;;;5095854;28;20027;-77
2022/04/25 09:00:12;;;;;;;5.68;1.85;;;436.10;2355.20;;;;;;5077408;28;20055;-76
2022/04/25 09:02:41;;;;;;;2.75;1.23;;;436.10;2355.20;;;;;;5095484;28;20532;-76
2022/04/25 09:05:08;;;;;;;6.00;1.30;;;460.80;2380.80;;;;;;5076909;28;20161;-78
2022/04/25 09:07:39;;;;;;;4.05;1.30;;;436.10;2355.20;;;;;;5077210;28;20489;-77
2022/04/25 09:10:10;;;;;;;4.18;1.40;;;436.10;2355.20;;;;;;5095183;28;20028;-74
2022/04/25 09:12:41;;;;;;;4.35;1.60;;;436.10;2355.20;;;;;;5095240;28;20024;-76
2022/04/25 09:15:09;;;;;;;5.78;1.20;;;436.10;2355.20;;;;;;5095739;28;20020;-76
2022/04/25 09:17:39;;;;;;;2.83;1.20;;;436.10;2355.20;;;;;;5077054;28;20020;-75
2022/04/25 09:20:07;;;;;;;1.45;1.00;;;436.10;2355.20;;;;;;5094788;28;20359;-76
2022/04/25 09:22:35;;;;;;;5.55;1.73;;;436.10;2355.20;;;;;;5076295;28;20048;-76
2022/04/25 09:25:15;;;;;;;6.00;1.98;;;460.80;2380.80;;;;;;5095055;28;20112;-76
2022/04/25 09:27:42;;;;;;;7.72;1.70;;;460.80;2380.80;;;;;;5094730;28;20031;-77
2022/04/25 09:30:22;;;;;;;7.13;1.65;;;460.80;2380.80;;;;;;5094523;28;20016;-76
2022/04/25 09:32:50;;;;;;;3.10;1.40;;;460.80;2380.80;;;;;;5076785;28;20025;-76
2022/04/25 09:35:27;;;;;;;4.18;1.65;;;460.80;2380.80;;;;;;5094607;28;20527;-77
2022/04/25 09:37:52;;;;;;;;;;;460.80;2380.80;;;;;;5077183;28;20024;-80
2022/04/25 09:40:20;;;;;;;7.13;2.47;;;436.10;2355.20;;;;;;5076656;28;19953;-78
2022/04/25 09:42:47;;;;;;;4.38;1.92;;;436.10;2355.20;;;;;;5076471;28;20043;-79
2022/04/25 09:45:15;;;;;;;7.95;1.67;;;460.80;2380.80;;;;;;5076541;28;20062;-79
2022/04/25 09:47:41;;;;;;;6.32;2.30;;;460.90;2380.80;;;;;;5076840;28;20520;-80
2022/04/25 09:50:08;;;;;;;13.57;2.63;;;461.10;2380.80;;;;;;5075914;28;20497;-80
2022/04/25 09:52:49;;;;;;;6.97;2.22;;;461.10;2380.80;;;;;;5073503;28;20053;-79
2022/04/25 09:55:16;;;;;;;9.27;2.28;;;461.20;2380.80;;;;;;5074448;28;20025;-78
2022/04/25 09:57:42;;;;;;;4.88;2.03;;;461.30;2380.80;;;;;;5073419;28;20554;-84
2022/04/25 10:00:09;;;;;;;5.10;1.50;;;461.40;2380.80;;;;;;5074738;28;20103;-80
2022/04/25 10:02:41;;;;;;;5.13;2.20;;;461.50;2380.80;;;;;;5080202;28;20063;-77
2022/04/25 10:05:39;;;;;;;6.13;2.40;;;486.40;2355.20;;;;;;5089460;28;20103;-81
2022/04/25 10:08:09;;;;;;;5.38;1.55;;;486.80;2278.40;;;;;;5075604;28;20020;-78
2022/04/25 10:10:41;;;;;;;4.35;1.77;;;487.00;2124.80;;;;;;5073315;28;20055;-78
2022/04/25 10:13:10;;;;;;;3.45;2.08;;;487.20;2099.20;;;;;;5074175;28;20028;-79
2022/04/25 10:15:37;;;;;;;5.65;1.58;;;487.10;2073.60;;;;;;5073612;28;20016;-79
2022/04/25 10:18:05;;;;;;;6.30;2.25;;;512.10;1945.60;;;;;;5073192;28;20024;-78
2022/04/25 10:20:34;;;;;;;5.75;2.00;;;512.30;1894.40;;;;;;5073375;28;20044;-78
2022/04/25 10:23:02;;;;;;;5.68;2.03;;;512.60;1945.60;;;;;;5072505;28;20093;-79
2022/04/25 10:25:27;;;;;;;4.90;1.80;;;512.80;1792.00;;;;;;5072578;28;20107;-77
2022/04/25 10:27:55;;;;;;;4.40;2.05;;;537.60;1894.40;;;;;;5072648;28;20107;-79
2022/04/25 10:30:21;;;;;;;3.85;1.30;;;537.60;1868.80;;;;;;5072110;28;20040;-78
2022/04/25 10:32:47;;;;;;;5.57;1.50;;;537.70;1740.80;;;;;;5072532;28;20028;-76
2022/04/25 10:35:31;;;;;;;1.33;0.85;;;537.90;1740.80;;;;;;5072324;28;20070;-80
2022/04/25 10:37:56;;;;;;;2.88;1.25;;;538.00;1612.80;;;;;;5073255;28;20027;-78
2022/04/25 10:46:14;;;;;;;5.90;1.60;;;538.10;1638.40;;;;;;5073309;28;20105;-80
2022/04/25 10:49:27;;;;;;;5.05;1.45;;;538.40;1638.40;;;;;;5071703;28;20063;-76
2022/04/25 10:51:53;;;;;;;4.00;1.55;;;538.50;1638.40;;;;;;4990099;28;20491;-75
2022/04/25 10:54:23;;;;;;;5.28;1.50;;;563.50;1689.60;;;;;;4974839;28;20030;-76
2022/04/25 10:57:07;;;;;;;3.05;1.35;;;563.40;1689.60;;;;;;4991354;28;20034;-78
2022/04/25 10:59:32;;;;;;;4.60;1.52;;;563.50;1689.60;;;;;;4974853;28;20034;-77
2022/04/25 11:01:58;;;;;;;4.10;1.75;;;563.50;1664.00;;;;;;4975145;28;20555;-78
2022/04/25 11:04:24;;;;;;;2.95;1.60;;;563.60;1689.60;;;;;;4975326;28;20492;-76
2022/04/25 11:07:20;;;;;;;5.18;1.55;;;538.50;1689.60;;;;;;4975275;28;20030;-78
2022/04/25 11:09:46;;;;;;;5.05;1.95;;;538.50;1689.60;;;;;;4975144;28;20046;-77
2022/04/25 11:12:12;;;;;;;4.60;1.52;;;563.20;1715.20;;;;;;4991384;28;20027;-77
2022/04/25 11:14:37;;;;;;;3.03;1.58;;;538.40;1689.60;;;;;;4970044;28;20493;-76
2022/04/25 11:17:06;;;;;;;4.00;1.83;;;538.10;1766.40;;;;;;4972285;28;20038;-75
2022/04/25 11:19:51;;;;;;;3.65;1.73;;;538.00;1817.60;;;;;;4972069;28;20035;-76
2022/04/25 11:22:35;;;;;;;3.28;1.17;;;512.90;1792.00;;;;;;4955986;28;20134;-77
2022/04/25 11:25:23;;;;;;;5.85;1.70;;;512.70;1792.00;;;;;;4986621;28;20373;-75
2022/04/25 11:28:01;;;;;;;3.95;1.35;;;512.60;1817.60;;;;;;5031575;28;20028;-77
2022/04/25 11:30:27;;;;;;;5.63;1.40;;;512.60;1817.60;;;;;;5031556;28;20183;-76
2022/04/25 11:33:00;;;;;;;2.97;1.33;;;512.60;1792.00;;;;;;5033225;28;20089;-77
2022/04/25 11:35:26;;;;;;;8.15;2.63;;;512.90;1740.80;;;;;;5034513;28;20022;-79
2022/04/25 11:37:56;;;;;;;4.35;1.42;;;538.00;1740.80;;;;;;5050999;28;20074;-77
2022/04/25 11:40:23;;;;;;;2.45;1.02;;;538.40;1638.40;;;;;;5048964;28;20037;-76
2022/04/25 11:42:49;;;;;;;6.40;1.60;;;563.20;1638.40;;;;;;5050492;28;20552;-77
2022/04/25 11:45:15;;;;;;;3.30;1.25;;;563.50;1587.20;;;;;;5052052;28;20031;-77
2022/04/25 11:47:41;;;;;;;10.95;3.95;;;563.60;1612.80;;;;;;5053017;28;20025;-76
2022/04/25 11:50:11;;;;;;;3.95;1.77;;;563.70;1664.00;;;;;;5051311;28;20109;-76
2022/04/25 11:52:48;;;;;;;2.97;1.13;;;564.10;1638.40;;;;;;5084904;28;20055;-77
2022/04/25 11:55:16;;;;;;;2.55;1.33;;;564.10;1587.20;;;;;;5095707;28;20019;-76
2022/04/25 11:57:43;;;;;;;2.65;1.17;;;588.80;1536.00;;;;;;5077801;28;20146;-75
2022/04/25 12:00:21;;;;;;;3.90;1.20;;;588.80;1484.80;;;;;;5095631;28;20073;-75
2022/04/25 12:02:47;;;;;;;4.82;1.20;;;588.80;1510.40;;;;;;5097456;28;20036;-75
2022/04/25 12:05:23;;;;;;;2.35;1.00;;;588.90;1484.80;;;;;;5096357;28;20112;-76
2022/04/25 12:16:04;;;;;;;2.50;1.23;;;588.90;1510.40;;;;;;5095102;28;20496;-76
2022/04/25 12:18:31;;;;;;;1.80;1.02;;;564.10;1510.40;;;;;;5095157;28;20034;-77
2022/04/25 12:21:02;;;;;;;1.98;1.20;;;563.60;1484.80;;;;;;5094915;28;20024;-75
2022/04/25 12:23:39;;;;;;;3.65;1.35;;;563.60;1510.40;;;;;;5077213;28;20492;-77
2022/04/25 12:26:08;;;;;;;1.67;0.88;;;563.90;1484.80;;;;;;5083702;28;20012;-80
2022/04/25 12:28:38;;;;;;;3.55;1.35;;;563.60;1510.40;;;;;;5077868;28;20124;-78
2022/04/25 12:31:03;;;;;;;4.05;1.40;;;564.00;1484.80;;;;;;5078662;28;20036;-78
2022/04/25 12:33:40;;;;;;;3.05;1.02;;;564.10;1510.40;;;;;;5078550;28;20032;-79
2022/04/25 12:36:19;;;;;;;4.20;1.27;;;588.80;1561.60;;;;;;5078098;28;20074;-79
2022/04/25 12:39:12;;;;;;;3.85;1.15;;;588.80;1536.00;;;;;;5077624;28;20111;-78
2022/04/25 12:41:41;;;;;;;7.88;1.35;;;563.80;1510.40;;;;;;5085279;28;20033;-76
2022/04/25 12:44:10;;;;;;;3.10;1.20;;;563.70;1510.40;;;;;;5077825;28;20110;-75
2022/04/25 12:46:52;;;;;;;5.55;1.20;;;563.60;1536.00;;;;;;5077284;28;20031;-76
2022/04/25 12:49:18;;;;;;;5.18;1.05;;;563.40;1536.00;;;;;;5094382;28;20028;-76
2022/04/25 12:51:50;;;;;;;2.25;1.02;;;563.90;1587.20;;;;;;5094711;28;20124;-77
2022/04/25 12:54:20;;;;;;;4.85;1.63;;;564.00;1587.20;;;;;;5077910;28;20478;-76